Time;durP1;ratioP1;P1;durP2;ratioP2;P2;SDS_P1;SDS_P2;PMS_P1;PMS_P2;Temp;Humidity;BMP_temperature;BMP_pressure;BME280_temperature;BME280_humidity;BME280_pressure;Samples;Min_cycle;Max_cycle;Signal;HPM_P1;HPM_P2
2022/06/10 00:00:17;;;;;;;8.77;4.80;;;;;;;;;;5076018;28;20032;-67
2022/06/10 00:02:44;;;;;;;6.55;4.78;;;;;;;;;;5087470;28;20543;-68
2022/06/10 00:05:12;;;;;;;13.63;5.25;;;;;;;;;;5089100;28;20118;-65
2022/06/10 00:07:38;;;;;;;7.05;4.65;;;;;;;;;;5094931;28;20050;-65
2022/06/10 00:10:05;;;;;;;9.98;4.80;;;;;;;;;;5100527;28;20238;-65
2022/06/10 00:12:31;;;;;;;8.70;4.63;;;;;;;;;;5087779;28;20490;-66
2022/06/10 00:14:57;;;;;;;10.07;4.95;;;;;;;;;;5096017;28;20051;-66
2022/06/10 00:17:23;;;;;;;10.30;5.35;;;;;;;;;;5088124;28;20044;-65
2022/06/10 00:19:49;;;;;;;12.30;5.20;;;;;;;;;;5088335;28;20039;-65
2022/06/10 00:22:15;;;;;;;10.38;5.28;;;;;;;;;;5087469;28;20047;-65
2022/06/10 00:24:41;;;;;;;7.03;4.85;;;;;;;;;;5095031;28;20045;-65
2022/06/10 00:27:08;;;;;;;11.95;4.28;;;;;;;;;;5098494;28;20035;-65
2022/06/10 00:29:34;;;;;;;11.50;4.90;;;;;;;;;;5095854;28;20521;-65
2022/06/10 00:32:01;;;;;;;12.85;6.15;;;;;;;;;;5072764;28;20101;-65
2022/06/10 00:34:27;;;;;;;8.52;4.40;;;;;;;;;;5075166;28;20448;-65
2022/06/10 00:36:53;;;;;;;9.48;4.18;;;;;;;;;;5100528;28;20042;-64
2022/06/10 00:39:19;;;;;;;7.88;4.97;;;;;;;;;;5091313;28;20051;-65
2022/06/10 00:41:45;;;;;;;8.68;4.30;;;;;;;;;;5087938;28;20047;-65
2022/06/10 00:44:30;;;;;;;11.45;5.30;;;;;;;;;;5093381;28;20216;-65
2022/06/10 00:46:56;;;;;;;10.90;4.57;;;;;;;;;;5076000;28;20680;-65
2022/06/10 00:49:23;;;;;;;11.23;4.60;;;;;;;;;;5099362;28;20494;-65
2022/06/10 00:51:51;;;;;;;6.72;5.15;;;;;;;;;;5093560;28;20109;-65
2022/06/10 00:54:26;;;;;;;9.38;4.85;;;;;;;;;;5090728;28;20331;-65
2022/06/10 00:56:55;;;;;;;8.23;4.80;;;;;;;;;;5084143;28;20036;-65
2022/06/10 00:59:31;;;;;;;10.95;4.90;;;;;;;;;;5084657;28;20040;-65
2022/06/10 01:01:59;;;;;;;11.30;4.90;;;;;;;;;;5089304;28;20040;-65
2022/06/10 01:04:26;;;;;;;8.48;4.60;;;;;;;;;;5094769;28;20040;-65
2022/06/10 01:06:52;;;;;;;9.35;4.78;;;;;;;;;;5088464;28;20510;-66
2022/06/10 01:09:18;;;;;;;10.88;5.15;;;;;;;;;;5088085;28;20518;-66
2022/06/10 01:12:03;;;;;;;8.93;4.65;;;;;;;;;;5084676;28;20347;-66
2022/06/10 01:14:46;;;;;;;5.63;4.22;;;;;;;;;;5080625;28;20265;-66
2022/06/10 01:17:21;;;;;;;10.85;4.82;;;;;;;;;;5079007;28;20537;-66
2022/06/10 01:19:53;;;;;;;9.60;4.85;;;;;;;;;;5094155;28;20046;-66
2022/06/10 01:22:40;;;;;;;10.57;4.35;;;;;;;;;;5085185;28;20041;-67
2022/06/10 01:25:26;;;;;;;9.63;4.97;;;;;;;;;;5083923;28;20457;-66
2022/06/10 01:27:59;;;;;;;9.25;4.13;;;;;;;;;;5085266;28;20028;-67
2022/06/10 01:30:38;;;;;;;8.32;4.47;;;;;;;;;;5098316;28;20031;-66
2022/06/10 01:33:13;;;;;;;7.93;4.97;;;;;;;;;;5091663;28;20094;-66
2022/06/10 01:36:05;;;;;;;9.43;4.53;;;;;;;;;;5094227;28;20057;-66
2022/06/10 01:38:35;;;;;;;10.17;4.40;;;;;;;;;;5079534;28;20044;-66
2022/06/10 01:41:10;;;;;;;7.80;4.43;;;;;;;;;;5087248;28;20357;-66
2022/06/10 01:43:47;;;;;;;8.10;4.65;;;;;;;;;;5091381;28;20267;-66
2022/06/10 01:46:25;;;;;;;8.25;3.75;;;;;;;;;;5095380;28;20040;-66
2022/06/10 01:49:05;;;;;;;6.13;3.92;;;;;;;;;;5094376;28;20051;-66
2022/06/10 01:51:45;;;;;;;23.02;6.03;;;;;;;;;;5086109;28;20181;-66
2022/06/10 01:54:22;;;;;;;8.50;4.65;;;;;;;;;;5100240;28;20040;-65
2022/06/10 01:56:52;;;;;;;9.35;5.13;;;;;;;;;;5085171;28;20028;-66
2022/06/10 01:59:26;;;;;;;13.80;5.10;;;;;;;;;;5085263;28;20042;-66
2022/06/10 02:01:55;;;;;;;9.90;4.15;;;;;;;;;;5087530;28;20420;-66
2022/06/10 02:04:23;;;;;;;9.75;4.57;;;;;;;;;;5094906;28;20132;-66
2022/06/10 02:06:58;;;;;;;8.35;4.68;;;;;;;;;;5094835;28;20032;-66
2022/06/10 02:09:27;;;;;;;5.88;4.50;;;;;;;;;;5103908;28;20035;-66
2022/06/10 02:11:57;;;;;;;11.27;4.53;;;;;;;;;;5093464;28;20032;-66
2022/06/10 02:14:37;;;;;;;6.57;4.25;;;;;;;;;;5092147;28;20043;-66
2022/06/10 02:17:05;;;;;;;11.52;5.32;;;;;;;;;;5086837;28;20055;-66
2022/06/10 02:19:35;;;;;;;13.23;5.35;;;;;;;;;;5099764;28;20451;-66
2022/06/10 02:22:21;;;;;;;9.57;5.40;;;;;;;;;;5095744;28;20113;-66
2022/06/10 02:24:50;;;;;;;7.88;3.83;;;;;;;;;;5097814;28;20044;-66
2022/06/10 02:27:18;;;;;;;10.40;4.90;;;;;;;;;;5088958;27;20040;-66
2022/06/10 02:29:54;;;;;;;11.38;6.70;;;;;;;;;;5060970;28;20402;-66
2022/06/10 02:32:20;;;;;;;13.57;5.60;;;;;;;;;;5095637;28;20044;-66
2022/06/10 02:34:46;;;;;;;5.05;4.35;;;;;;;;;;5078783;28;20043;-66
2022/06/10 02:37:24;;;;;;;5.72;4.70;;;;;;;;;;5074297;28;20040;-66
2022/06/10 02:40:09;;;;;;;13.95;5.28;;;;;;;;;;5091779;28;20089;-65
2022/06/10 02:42:35;;;;;;;10.32;4.63;;;;;;;;;;5078181;28;20047;-65
2022/06/10 02:45:07;;;;;;;8.80;4.65;;;;;;;;;;5079630;28;20044;-66
2022/06/10 02:47:33;;;;;;;13.20;6.47;;;;;;;;;;5088268;28;20558;-65
2022/06/10 02:49:59;;;;;;;12.20;5.95;;;;;;;;;;5085197;28;20050;-65
2022/06/10 02:52:27;;;;;;;12.15;5.15;;;;;;;;;;5083233;28;20075;-66
2022/06/10 02:54:53;;;;;;;7.68;4.50;;;;;;;;;;5085436;28;20128;-66
2022/06/10 02:57:21;;;;;;;7.43;5.40;;;;;;;;;;5087635;28;20052;-65
2022/06/10 03:02:50;;;;;;;12.00;6.00;;;;;;;;;;5088221;28;20046;-66
2022/06/10 03:05:36;;;;;;;9.90;5.72;;;;;;;;;;5092544;28;20224;-67
2022/06/10 03:08:02;;;;;;;10.85;5.45;;;;;;;;;;5090878;28;20037;-66
2022/06/10 03:10:47;;;;;;;11.52;5.65;;;;;;;;;;5096553;28;20100;-66
2022/06/10 03:13:16;;;;;;;10.48;5.50;;;;;;;;;;5093326;28;20072;-65
2022/06/10 03:15:42;;;;;;;9.85;5.22;;;;;;;;;;5091495;28;20044;-66
2022/06/10 03:18:24;;;;;;;9.27;5.53;;;;;;;;;;5082202;28;20059;-66
2022/06/10 03:20:58;;;;;;;7.57;4.72;;;;;;;;;;5081306;28;20042;-65
2022/06/10 03:23:30;;;;;;;16.92;5.35;;;;;;;;;;5085800;28;20045;-65
2022/06/10 03:26:03;;;;;;;14.75;5.63;;;;;;;;;;5089210;28;20055;-65
2022/06/10 03:28:41;;;;;;;6.93;4.35;;;;;;;;;;5089548;28;20037;-65
2022/06/10 03:31:22;;;;;;;11.50;5.65;;;;;;;;;;5091181;28;20042;-65
2022/06/10 03:34:15;;;;;;;9.93;4.82;;;;;;;;;;5087661;28;20040;-67
2022/06/10 03:36:42;;;;;;;8.30;4.10;;;;;;;;;;5078089;28;20554;-67
2022/06/10 03:39:09;;;;;;;8.93;4.85;;;;;;;;;;5088224;28;20035;-67
2022/06/10 03:41:38;;;;;;;11.13;5.00;;;;;;;;;;5101477;28;20470;-67
2022/06/10 03:44:10;;;;;;;9.52;4.85;;;;;;;;;;5083529;28;20533;-67
2022/06/10 03:46:36;;;;;;;9.80;4.45;;;;;;;;;;5089065;28;20052;-66
2022/06/10 03:49:06;;;;;;;9.05;4.55;;;;;;;;;;5087202;28;20078;-67
2022/06/10 03:51:33;;;;;;;8.95;3.95;;;;;;;;;;5096291;28;20036;-67
2022/06/10 03:53:59;;;;;;;6.22;4.30;;;;;;;;;;5091292;28;20041;-67
2022/06/10 03:56:25;;;;;;;12.82;4.32;;;;;;;;;;5091234;28;20043;-67
2022/06/10 03:58:52;;;;;;;10.80;4.65;;;;;;;;;;5091731;28;20037;-66
2022/06/10 04:01:19;;;;;;;13.98;4.57;;;;;;;;;;5088375;28;20059;-67
2022/06/10 04:03:45;;;;;;;10.52;5.50;;;;;;;;;;5092835;28;20065;-67
2022/06/10 04:06:11;;;;;;;11.82;4.45;;;;;;;;;;5093800;28;20067;-67
2022/06/10 04:08:38;;;;;;;9.38;4.60;;;;;;;;;;5090173;28;20032;-67
2022/06/10 04:11:07;;;;;;;8.48;3.30;;;;;;;;;;5085929;28;20323;-66
2022/06/10 04:13:33;;;;;;;10.52;4.78;;;;;;;;;;5086715;28;20565;-67
2022/06/10 04:16:01;;;;;;;10.98;5.47;;;;;;;;;;5088179;28;20272;-67
2022/06/10 04:18:29;;;;;;;12.23;5.22;;;;;;;;;;5087419;28;20075;-67
2022/06/10 04:20:56;;;;;;;13.13;4.88;;;;;;;;;;5052203;28;20035;-66
2022/06/10 04:23:22;;;;;;;10.30;4.68;;;;;;;;;;5088842;28;20472;-67
2022/06/10 04:25:49;;;;;;;10.65;4.05;;;;;;;;;;5085455;28;20035;-66
2022/06/10 04:28:15;;;;;;;13.68;4.82;;;;;;;;;;5085407;28;20127;-65
2022/06/10 04:30:45;;;;;;;11.70;4.70;;;;;;;;;;5092484;28;20523;-67
2022/06/10 04:33:12;;;;;;;11.55;5.30;;;;;;;;;;5086226;28;20697;-67
2022/06/10 04:35:39;;;;;;;9.82;4.03;;;;;;;;;;5085962;28;20134;-67
2022/06/10 04:38:05;;;;;;;7.70;3.90;;;;;;;;;;5102969;27;20562;-67
2022/06/10 04:40:33;;;;;;;12.98;4.43;;;;;;;;;;5077892;28;20035;-67
2022/06/10 04:42:59;;;;;;;14.02;5.13;;;;;;;;;;5098522;28;20035;-67
2022/06/10 04:45:27;;;;;;;11.10;4.47;;;;;;;;;;5084112;28;20032;-67
2022/06/10 04:47:56;;;;;;;17.70;4.50;;;;;;;;;;5084148;28;20056;-67
2022/06/10 04:50:24;;;;;;;9.13;4.55;;;;;;;;;;5080524;28;20521;-67
2022/06/10 04:52:51;;;;;;;15.02;4.45;;;;;;;;;;5089008;28;20032;-67
2022/06/10 04:55:18;;;;;;;10.75;4.75;;;;;;;;;;5086956;28;20051;-68
2022/06/10 04:57:44;;;;;;;9.45;4.20;;;;;;;;;;5089604;28;20040;-67
2022/06/10 05:00:15;;;;;;;10.00;4.47;;;;;;;;;;5072659;28;20421;-66
2022/06/10 05:02:41;;;;;;;8.05;4.78;;;;;;;;;;5093530;28;20124;-67
2022/06/10 05:05:08;;;;;;;8.20;4.32;;;;;;;;;;5085073;28;20048;-66
2022/06/10 05:07:34;;;;;;;10.20;4.82;;;;;;;;;;5089135;28;20402;-66
2022/06/10 05:10:01;;;;;;;12.70;4.57;;;;;;;;;;5091430;28;20075;-64
2022/06/10 05:12:28;;;;;;;12.77;4.53;;;;;;;;;;5082313;28;20042;-64
2022/06/10 05:14:54;;;;;;;8.35;3.85;;;;;;;;;;5097977;28;20044;-64
2022/06/10 05:17:20;;;;;;;12.05;5.57;;;;;;;;;;5093402;28;20040;-64
2022/06/10 05:19:47;;;;;;;11.23;5.40;;;;;;;;;;5091185;28;20577;-64
2022/06/10 05:22:15;;;;;;;9.90;4.35;;;;;;;;;;5073531;28;20670;-64
2022/06/10 05:24:42;;;;;;;9.55;4.25;;;;;;;;;;5091816;28;20044;-64
2022/06/10 05:27:09;;;;;;;13.73;4.93;;;;;;;;;;5092969;28;20044;-64
2022/06/10 05:29:35;;;;;;;8.25;5.20;;;;;;;;;;5096066;28;20048;-65
2022/06/10 05:32:01;;;;;;;11.25;5.57;;;;;;;;;;5091179;28;20039;-65
2022/06/10 05:34:46;;;;;;;22.13;5.35;;;;;;;;;;5086310;28;20044;-64
2022/06/10 05:37:13;;;;;;;11.75;3.97;;;;;;;;;;5082615;28;20039;-64
2022/06/10 05:39:39;;;;;;;8.52;4.72;;;;;;;;;;5097632;28;20483;-64
2022/06/10 05:42:05;;;;;;;10.80;4.72;;;;;;;;;;5094024;28;20035;-64
2022/06/10 05:44:38;;;;;;;10.48;4.63;;;;;;;;;;5079711;28;20028;-65
2022/06/10 05:47:07;;;;;;;8.45;5.45;;;;;;;;;;5061930;28;20391;-64
2022/06/10 05:49:33;;;;;;;9.77;4.22;;;;;;;;;;5078233;28;20051;-64
2022/06/10 05:52:00;;;;;;;7.53;5.40;;;;;;;;;;5096043;28;20055;-65
2022/06/10 05:54:26;;;;;;;11.77;6.88;;;;;;;;;;5090646;28;20039;-64
2022/06/10 05:56:52;;;;;;;13.18;5.30;;;;;;;;;;5079302;28;20077;-64
2022/06/10 05:59:19;;;;;;;12.38;5.00;;;;;;;;;;5102284;28;20535;-64
2022/06/10 06:01:45;;;;;;;16.95;5.38;;;;;;;;;;5078000;28;20035;-64
2022/06/10 06:04:12;;;;;;;13.82;5.20;;;;;;;;;;5056667;28;20406;-64
2022/06/10 06:06:38;;;;;;;17.67;6.65;;;;;;;;;;5068467;28;20045;-64
2022/06/10 06:09:04;;;;;;;12.80;6.28;;;;;;;;;;5080239;28;20054;-67
2022/06/10 06:11:30;;;;;;;12.07;5.75;;;;;;;;;;5081635;28;20477;-67
2022/06/10 06:13:58;;;;;;;10.90;6.32;;;;;;;;;;5082885;28;20044;-67
2022/06/10 06:16:24;;;;;;;17.35;5.95;;;;;;;;;;5087116;28;20046;-67
2022/06/10 06:18:52;;;;;;;13.95;6.82;;;;;;;;;;5091672;28;20725;-67
2022/06/10 06:21:19;;;;;;;13.63;6.18;;;;;;;;;;5083313;28;20122;-67
2022/06/10 06:23:45;;;;;;;19.35;6.60;;;;;;;;;;5080567;28;20040;-67
2022/06/10 06:26:15;;;;;;;16.85;7.18;;;;;;;;;;5082423;28;20071;-67
2022/06/10 06:28:42;;;;;;;14.07;5.95;;;;;;;;;;5087579;28;20044;-66
2022/06/10 06:31:08;;;;;;;13.40;7.05;;;;;;;;;;5083052;28;20036;-66
2022/06/10 06:33:34;;;;;;;22.83;8.48;;;;;;;;;;5069973;28;20048;-66
2022/06/10 06:36:01;;;;;;;17.80;7.05;;;;;;;;;;5090482;28;20206;-67
2022/06/10 06:38:28;;;;;;;14.85;7.25;;;;;;;;;;5086453;28;20130;-66
2022/06/10 06:40:54;;;;;;;11.70;6.47;;;;;;;;;;5082297;28;20111;-67
2022/06/10 06:43:20;;;;;;;11.40;6.55;;;;;;;;;;5093723;28;20040;-67
2022/06/10 06:45:47;;;;;;;17.70;6.43;;;;;;;;;;5077084;28;20133;-67
2022/06/10 06:48:13;;;;;;;17.85;7.15;;;;;;;;;;5098828;28;20044;-67
2022/06/10 06:50:42;;;;;;;18.73;7.47;;;;;;;;;;5084747;28;20049;-67
2022/06/10 06:53:08;;;;;;;13.27;6.75;;;;;;;;;;5085725;28;20127;-67
2022/06/10 06:55:36;;;;;;;14.48;6.70;;;;;;;;;;5089440;28;20067;-67
2022/06/10 06:58:02;;;;;;;14.80;7.75;;;;;;;;;;5080951;28;20403;-67
2022/06/10 07:00:28;;;;;;;15.90;7.60;;;;;;;;;;5091176;28;20039;-67
2022/06/10 07:02:55;;;;;;;13.10;7.75;;;;;;;;;;5093592;28;20398;-67
2022/06/10 07:05:21;;;;;;;13.10;7.45;;;;;;;;;;5086530;28;20048;-67
2022/06/10 07:07:48;;;;;;;18.30;7.85;;;;;;;;;;5052978;28;20048;-67
2022/06/10 07:10:16;;;;;;;10.40;6.43;;;;;;;;;;5086395;28;20032;-67
2022/06/10 07:12:42;;;;;;;13.90;7.00;;;;;;;;;;5088685;28;20036;-67
2022/06/10 07:15:09;;;;;;;14.75;7.60;;;;;;;;;;5085646;28;20033;-67
2022/06/10 07:17:35;;;;;;;10.60;7.32;;;;;;;;;;5092861;28;20040;-67
2022/06/10 07:20:02;;;;;;;18.15;8.35;;;;;;;;;;5086404;28;20090;-67
2022/06/10 07:22:28;;;;;;;12.80;8.60;;;;;;;;;;5088772;28;20036;-67
2022/06/10 07:24:54;;;;;;;16.13;8.13;;;;;;;;;;5088931;28;20105;-67
2022/06/10 07:27:21;;;;;;;12.32;7.30;;;;;;;;;;5086187;28;20043;-67
2022/06/10 07:29:48;;;;;;;13.23;7.57;;;;;;;;;;5090346;28;20053;-67
2022/06/10 07:32:14;;;;;;;12.13;8.50;;;;;;;;;;5087564;28;20067;-67
2022/06/10 07:34:40;;;;;;;14.48;7.60;;;;;;;;;;5089074;28;20080;-67
2022/06/10 07:37:06;;;;;;;15.27;7.38;;;;;;;;;;5087432;28;20043;-67
2022/06/10 07:39:33;;;;;;;11.07;7.97;;;;;;;;;;5102118;28;20035;-67
2022/06/10 07:42:02;;;;;;;14.82;7.50;;;;;;;;;;5083935;28;20040;-67
2022/06/10 07:44:30;;;;;;;16.08;9.57;;;;;;;;;;5092018;28;20485;-67
2022/06/10 07:46:57;;;;;;;14.63;9.88;;;;;;;;;;5090140;28;20423;-67
2022/06/10 07:49:24;;;;;;;18.05;8.27;;;;;;;;;;5091279;28;20517;-67
2022/06/10 07:51:50;;;;;;;23.92;9.60;;;;;;;;;;5085737;28;20078;-66
2022/06/10 07:54:16;;;;;;;12.60;8.95;;;;;;;;;;5097235;28;20518;-67
2022/06/10 07:56:42;;;;;;;15.95;7.78;;;;;;;;;;5074021;28;20041;-67
2022/06/10 07:59:09;;;;;;;17.30;9.10;;;;;;;;;;5095096;28;20442;-66
2022/06/10 08:01:35;;;;;;;16.63;8.52;;;;;;;;;;5089271;28;20058;-66
2022/06/10 08:04:01;;;;;;;11.20;7.07;;;;;;;;;;5097298;28;20587;-67
2022/06/10 08:06:29;;;;;;;14.55;7.68;;;;;;;;;;5082731;28;20040;-67
2022/06/10 08:08:55;;;;;;;12.77;7.07;;;;;;;;;;5096390;28;20059;-67
2022/06/10 08:11:22;;;;;;;10.68;7.55;;;;;;;;;;5089241;28;20071;-67
2022/06/10 08:13:48;;;;;;;15.13;7.80;;;;;;;;;;5083899;28;20025;-67
2022/06/10 08:16:15;;;;;;;15.20;8.77;;;;;;;;;;5084653;28;20098;-67
2022/06/10 08:18:41;;;;;;;12.85;10.15;;;;;;;;;;5090131;28;20036;-67
2022/06/10 08:23:53;;;;;;;15.48;9.27;;;;;;;;;;5093778;28;20087;-67
2022/06/10 08:26:20;;;;;;;16.13;9.07;;;;;;;;;;5083118;28;20040;-67
2022/06/10 08:28:47;;;;;;;10.98;8.20;;;;;;;;;;5085231;28;20032;-67
2022/06/10 08:31:15;;;;;;;13.30;8.90;;;;;;;;;;5085533;28;20405;-67
2022/06/10 08:33:42;;;;;;;18.27;10.55;;;;;;;;;;5094475;28;20400;-67
2022/06/10 08:36:09;;;;;;;15.68;9.65;;;;;;;;;;5095784;28;20074;-67
2022/06/10 08:38:35;;;;;;;14.77;9.18;;;;;;;;;;5085132;28;20043;-67
2022/06/10 08:41:16;;;;;;;12.30;9.15;;;;;;;;;;5066839;28;20205;-67
2022/06/10 08:44:00;;;;;;;18.83;8.85;;;;;;;;;;5097477;28;20043;-67
2022/06/10 08:46:30;;;;;;;22.38;8.80;;;;;;;;;;5089206;28;20047;-67
2022/06/10 08:48:56;;;;;;;14.02;8.05;;;;;;;;;;5098118;28;20048;-67
2022/06/10 08:51:41;;;;;;;12.40;7.28;;;;;;;;;;5087654;28;20045;-67
2022/06/10 08:54:23;;;;;;;11.80;8.05;;;;;;;;;;5090224;28;20043;-67
2022/06/10 08:56:50;;;;;;;11.23;7.47;;;;;;;;;;5078916;28;20035;-67
2022/06/10 08:59:43;;;;;;;12.27;8.20;;;;;;;;;;5098150;28;20039;-67
2022/06/10 09:02:21;;;;;;;16.27;7.87;;;;;;;;;;5091111;28;20428;-67
2022/06/10 09:04:52;;;;;;;16.05;8.55;;;;;;;;;;5089288;28;20512;-67
2022/06/10 09:07:41;;;;;;;15.40;8.95;;;;;;;;;;5081407;28;20070;-67
2022/06/10 09:10:08;;;;;;;21.35;9.55;;;;;;;;;;5090105;28;20378;-67
2022/06/10 09:12:53;;;;;;;17.23;7.85;;;;;;;;;;5096828;28;20470;-66
2022/06/10 09:15:19;;;;;;;14.20;8.00;;;;;;;;;;5086125;28;20536;-66
2022/06/10 09:17:55;;;;;;;17.65;9.02;;;;;;;;;;5086989;28;20058;-66
2022/06/10 09:20:28;;;;;;;12.68;7.40;;;;;;;;;;5086767;28;20067;-66
2022/06/10 09:23:05;;;;;;;17.13;8.88;;;;;;;;;;5075365;28;20044;-66
2022/06/10 09:25:38;;;;;;;20.42;7.85;;;;;;;;;;5096157;28;20040;-66
2022/06/10 09:28:04;;;;;;;18.30;8.80;;;;;;;;;;5098972;28;20044;-65
2022/06/10 09:30:45;;;;;;;18.42;8.57;;;;;;;;;;5088443;28;20496;-66
2022/06/10 09:33:15;;;;;;;23.83;10.13;;;;;;;;;;5078102;28;20046;-66
2022/06/10 09:35:46;;;;;;;15.85;7.93;;;;;;;;;;5084364;28;20040;-66
2022/06/10 09:38:25;;;;;;;14.60;8.18;;;;;;;;;;5094242;28;20131;-66
2022/06/10 09:41:20;;;;;;;12.27;7.43;;;;;;;;;;5089298;28;20471;-65
2022/06/10 09:43:59;;;;;;;18.75;9.05;;;;;;;;;;5082535;28;20047;-66
2022/06/10 09:46:31;;;;;;;13.23;7.85;;;;;;;;;;5085888;28;20045;-66
2022/06/10 09:49:20;;;;;;;15.32;7.85;;;;;;;;;;5079442;28;20532;-66
2022/06/10 09:51:49;;;;;;;14.05;8.20;;;;;;;;;;5108700;28;20052;-66
2022/06/10 09:54:15;;;;;;;15.70;7.70;;;;;;;;;;5100850;28;20036;-66
2022/06/10 09:56:42;;;;;;;21.08;7.78;;;;;;;;;;5088888;28;20035;-65
2022/06/10 09:59:27;;;;;;;20.70;8.52;;;;;;;;;;5090947;28;20145;-65
2022/06/10 10:01:53;;;;;;;13.93;8.50;;;;;;;;;;5078799;28;20087;-66
2022/06/10 10:04:19;;;;;;;16.13;8.70;;;;;;;;;;5091088;28;20044;-65
2022/06/10 10:06:52;;;;;;;19.50;8.38;;;;;;;;;;5100455;28;20039;-66
2022/06/10 10:09:37;;;;;;;15.88;8.30;;;;;;;;;;5102995;28;20077;-66
2022/06/10 10:12:09;;;;;;;15.15;7.18;;;;;;;;;;5089082;28;20080;-66
2022/06/10 10:14:41;;;;;;;24.40;9.73;;;;;;;;;;5084987;28;20044;-66
2022/06/10 10:17:26;;;;;;;13.95;9.93;;;;;;;;;;5094191;28;20036;-66
2022/06/10 10:19:58;;;;;;;15.15;8.38;;;;;;;;;;5092307;28;20032;-66
2022/06/10 10:22:44;;;;;;;14.18;9.05;;;;;;;;;;5095844;28;20092;-66
2022/06/10 10:25:20;;;;;;;20.60;10.13;;;;;;;;;;5086055;28;20078;-66
2022/06/10 10:27:48;;;;;;;18.00;10.02;;;;;;;;;;5086700;28;20365;-66
2022/06/10 10:30:14;;;;;;;18.73;8.02;;;;;;;;;;5090183;28;20037;-66
2022/06/10 10:32:42;;;;;;;15.30;9.35;;;;;;;;;;5083345;28;20119;-66
2022/06/10 10:35:25;;;;;;;13.30;8.38;;;;;;;;;;5093125;28;20036;-66
2022/06/10 10:37:57;;;;;;;11.82;7.53;;;;;;;;;;5087705;28;20066;-66
2022/06/10 10:40:32;;;;;;;16.50;8.27;;;;;;;;;;5083783;28;20036;-66
2022/06/10 10:43:00;;;;;;;12.85;8.48;;;;;;;;;;5083589;28;20119;-66
2022/06/10 10:45:31;;;;;;;20.17;10.75;;;;;;;;;;5090120;28;20563;-66
2022/06/10 10:48:03;;;;;;;15.32;9.77;;;;;;;;;;5090332;28;20048;-66
2022/06/10 10:50:29;;;;;;;12.77;9.25;;;;;;;;;;5094408;28;20114;-66
2022/06/10 10:52:55;;;;;;;15.05;10.88;;;;;;;;;;5082176;28;20502;-67
2022/06/10 10:55:28;;;;;;;16.02;10.20;;;;;;;;;;5089754;28;20040;-66
2022/06/10 10:57:54;;;;;;;12.05;9.93;;;;;;;;;;5086393;28;20032;-66
2022/06/10 11:00:21;;;;;;;12.88;9.55;;;;;;;;;;5095300;28;20074;-67
2022/06/10 11:02:59;;;;;;;17.23;9.55;;;;;;;;;;5082659;28;20044;-66
2022/06/10 11:05:25;;;;;;;16.55;10.15;;;;;;;;;;5087585;28;20083;-66
2022/06/10 11:08:06;;;;;;;15.18;8.90;;;;;;;;;;5091361;28;20028;-66
2022/06/10 11:10:35;;;;;;;15.18;9.80;;;;;;;;;;5095424;28;20115;-66
2022/06/10 11:13:02;;;;;;;11.75;8.10;;;;;;;;;;5096027;28;20040;-66
2022/06/10 11:15:29;;;;;;;12.38;8.40;;;;;;;;;;5079984;28;20043;-66
2022/06/10 11:17:59;;;;;;;12.48;8.98;;;;;;;;;;5101281;27;20720;-66
2022/06/10 11:20:29;;;;;;;14.93;10.30;;;;;;;;;;5088931;28;20402;-66
2022/06/10 11:23:14;;;;;;;12.65;9.80;;;;;;;;;;5088436;28;20464;-66
2022/06/10 11:25:40;;;;;;;12.25;9.77;;;;;;;;;;5096908;28;20123;-66
2022/06/10 11:28:18;;;;;;;13.98;10.23;;;;;;;;;;5097354;28;20046;-66
2022/06/10 11:30:48;;;;;;;16.15;10.07;;;;;;;;;;5080314;28;20546;-66
2022/06/10 11:33:20;;;;;;;17.58;9.73;;;;;;;;;;5086519;28;20048;-66
2022/06/10 11:35:58;;;;;;;15.30;10.05;;;;;;;;;;5082861;28;20039;-66
2022/06/10 11:38:28;;;;;;;11.32;8.65;;;;;;;;;;5091385;28;20048;-67
2022/06/10 11:40:56;;;;;;;13.65;8.93;;;;;;;;;;5085586;28;20044;-66
2022/06/10 11:43:25;;;;;;;13.95;8.50;;;;;;;;;;5092931;28;20070;-66
2022/06/10 11:46:02;;;;;;;19.90;9.48;;;;;;;;;;5087022;28;20036;-66
2022/06/10 11:48:28;;;;;;;13.07;9.10;;;;;;;;;;5100970;28;20052;-66
2022/06/10 11:50:57;;;;;;;19.23;9.13;;;;;;;;;;5089490;28;20032;-66
2022/06/10 11:53:29;;;;;;;13.52;8.55;;;;;;;;;;5093563;28;20489;-66
2022/06/10 11:59:45;;;;;;;14.98;9.23;;;;;;;;;;5091169;28;20508;-66
2022/06/10 12:01:47;;;;;;;15.52;8.35;;;;;;;;;;5074728;28;20143;-66
2022/06/10 12:04:26;;;;;;;14.38;7.45;;;;;;;;;;5098437;28;20075;-66
2022/06/10 12:06:55;;;;;;;15.60;7.57;;;;;;;;;;5079361;28;20586;-66
2022/06/10 12:09:21;;;;;;;14.23;7.05;;;;;;;;;;5088927;28;20040;-66
2022/06/10 12:12:02;;;;;;;10.45;6.28;;;;;;;;;;5091146;28;20036;-66
2022/06/10 12:14:43;;;;;;;9.90;7.20;;;;;;;;;;5092944;28;20032;-66
2022/06/10 12:17:15;;;;;;;13.23;6.00;;;;;;;;;;5092107;28;20526;-66
2022/06/10 12:19:43;;;;;;;12.13;6.45;;;;;;;;;;5103589;28;20565;-66
2022/06/10 12:22:11;;;;;;;10.32;5.22;;;;;;;;;;5078350;28;20066;-67
2022/06/10 12:24:38;;;;;;;11.88;4.95;;;;;;;;;;5096116;28;20668;-66
2022/06/10 12:27:10;;;;;;;7.30;3.90;;;;;;;;;;5084220;28;20055;-66
2022/06/10 12:29:36;;;;;;;;;;;;;;;;;;5086642;28;20182;-66
2022/06/10 12:32:26;;;;;;;4.70;2.88;;;;;;;;;;5085498;28;19916;-66
2022/06/10 12:35:09;;;;;;;4.63;2.63;;;;;;;;;;5081187;28;20047;-66
2022/06/10 12:37:35;;;;;;;;;;;;;;;;;;5092948;28;20435;-67
2022/06/10 12:40:05;;;;;;;3.83;2.30;;;;;;;;;;5092647;28;19920;-66
2022/06/10 12:42:36;;;;;;;4.88;2.60;;;;;;;;;;5083781;28;20036;-66
2022/06/10 12:45:04;;;;;;;8.30;3.42;;;;;;;;;;5087527;28;20097;-67
2022/06/10 12:47:34;;;;;;;7.57;3.35;;;;;;;;;;5098867;28;20044;-66
2022/06/10 12:50:01;;;;;;;8.48;4.22;;;;;;;;;;5094586;28;20043;-66
2022/06/10 12:52:54;;;;;;;6.03;3.67;;;;;;;;;;5094169;28;20078;-67
2022/06/10 12:55:29;;;;;;;7.68;4.00;;;;;;;;;;5080006;28;20048;-66
2022/06/10 12:57:55;;;;;;;6.07;3.67;;;;;;;;;;5086954;28;20132;-66
2022/06/10 13:00:22;;;;;;;8.13;3.03;;;;;;;;;;5101260;28;20402;-67
2022/06/10 13:02:48;;;;;;;5.05;2.33;;;;;;;;;;5098576;28;20039;-67
2022/06/10 13:05:20;;;;;;;5.93;2.95;;;;;;;;;;5087048;28;20201;-66
2022/06/10 13:07:50;;;;;;;7.13;2.67;;;;;;;;;;5085767;28;20040;-67
2022/06/10 13:10:35;;;;;;;9.45;2.47;;;;;;;;;;5080378;28;20043;-66
2022/06/10 13:13:10;;;;;;;6.65;3.08;;;;;;;;;;5092750;28;20477;-67
2022/06/10 13:15:37;;;;;;;4.38;2.08;;;;;;;;;;5115794;28;20092;-66
2022/06/10 13:18:19;;;;;;;6.00;2.60;;;;;;;;;;5092664;28;20451;-66
2022/06/10 13:20:49;;;;;;;7.78;3.17;;;;;;;;;;5092063;28;20067;-67
2022/06/10 13:23:18;;;;;;;5.50;2.10;;;;;;;;;;5079442;28;20469;-66
2022/06/10 13:25:47;;;;;;;6.80;2.28;;;;;;;;;;5078765;28;20044;-66
2022/06/10 13:28:27;;;;;;;6.15;2.35;;;;;;;;;;5097850;28;20539;-67
2022/06/10 13:31:05;;;;;;;4.10;2.15;;;;;;;;;;5092588;28;20028;-66
2022/06/10 13:33:32;;;;;;;5.72;2.45;;;;;;;;;;5085311;28;20097;-66
2022/06/10 13:35:58;;;;;;;7.88;2.50;;;;;;;;;;5091396;28;20424;-67
2022/06/10 13:38:36;;;;;;;7.03;2.75;;;;;;;;;;5102606;28;20586;-66
2022/06/10 13:43:56;;;;;;;10.13;2.47;;;;;;;;;;5093167;28;20052;-67
2022/06/10 13:46:28;;;;;;;7.28;3.13;;;;;;;;;;5083920;28;20066;-67
2022/06/10 13:49:13;;;;;;;10.98;3.55;;;;;;;;;;5106026;27;20513;-67
2022/06/10 13:51:44;;;;;;;5.97;2.85;;;;;;;;;;5105861;28;20066;-67
2022/06/10 13:54:17;;;;;;;7.20;3.10;;;;;;;;;;5098673;28;20040;-67
2022/06/10 13:56:43;;;;;;;8.35;3.05;;;;;;;;;;5086238;28;20071;-67
2022/06/10 13:59:21;;;;;;;5.93;2.72;;;;;;;;;;5082488;28;20122;-66
2022/06/10 14:01:49;;;;;;;9.70;3.22;;;;;;;;;;5076438;28;20067;-67
2022/06/10 14:04:26;;;;;;;6.72;2.55;;;;;;;;;;5075741;28;20041;-67
2022/06/10 14:06:54;;;;;;;10.57;3.63;;;;;;;;;;5097797;28;20036;-67
2022/06/10 14:09:21;;;;;;;5.35;3.08;;;;;;;;;;5099761;28;20044;-67
2022/06/10 14:12:02;;;;;;;6.88;3.47;;;;;;;;;;5088226;28;20416;-67
2022/06/10 14:14:28;;;;;;;6.82;4.00;;;;;;;;;;5088798;28;20036;-66
2022/06/10 14:17:08;;;;;;;6.35;2.67;;;;;;;;;;5096711;28;20054;-67
2022/06/10 14:19:40;;;;;;;12.48;3.55;;;;;;;;;;5095415;28;20042;-66
2022/06/10 14:22:16;;;;;;;8.45;3.47;;;;;;;;;;5090326;28;20418;-66
2022/06/10 14:24:42;;;;;;;5.60;2.95;;;;;;;;;;5096727;28;20035;-67
2022/06/10 14:27:11;;;;;;;13.90;4.60;;;;;;;;;;5079038;28;20047;-67
2022/06/10 14:29:40;;;;;;;8.65;3.20;;;;;;;;;;5090004;28;20040;-67
2022/06/10 14:32:21;;;;;;;13.50;4.25;;;;;;;;;;5086117;28;20064;-67
2022/06/10 14:34:48;;;;;;;7.47;3.90;;;;;;;;;;5087269;28;20040;-66
2022/06/10 14:37:43;;;;;;;12.70;4.35;;;;;;;;;;5081331;28;20115;-66
2022/06/10 14:40:12;;;;;;;10.32;3.90;;;;;;;;;;5075647;28;20154;-67
2022/06/10 14:42:40;;;;;;;14.90;3.92;;;;;;;;;;5093678;28;20078;-67
2022/06/10 14:45:24;;;;;;;9.68;3.72;;;;;;;;;;5103065;28;20115;-66
2022/06/10 14:48:04;;;;;;;8.55;3.70;;;;;;;;;;5082347;28;20052;-67
2022/06/10 14:50:31;;;;;;;7.45;3.40;;;;;;;;;;5079215;28;20528;-66
2022/06/10 14:52:57;;;;;;;14.27;4.18;;;;;;;;;;5083752;28;20391;-66
2022/06/10 14:55:26;;;;;;;12.02;4.95;;;;;;;;;;5051420;28;20108;-66
2022/06/10 14:57:53;;;;;;;6.55;3.50;;;;;;;;;;5089928;28;20043;-66
2022/06/10 15:00:20;;;;;;;7.82;2.97;;;;;;;;;;5099870;28;20397;-66
2022/06/10 15:02:47;;;;;;;12.35;3.28;;;;;;;;;;5091579;28;20044;-66
2022/06/10 15:07:59;;;;;;;9.95;3.65;;;;;;;;;;5092563;28;20044;-67